createdAt,value
2023-02-15T00:01:41.082Z,0.86
2023-02-15T00:04:09.128Z,0.86
2023-02-15T00:06:36.240Z,0.89
2023-02-15T00:09:03.756Z,0.92
2023-02-15T00:12:06.064Z,0.90
2023-02-15T00:14:32.446Z,0.90
2023-02-15T00:17:00.738Z,0.93
2023-02-15T00:19:27.137Z,0.89
2023-02-15T00:21:53.586Z,0.79
2023-02-15T00:24:20.681Z,0.73
2023-02-15T00:26:48.574Z,0.70
2023-02-15T00:29:16.468Z,0.63
2023-02-15T00:31:43.108Z,0.54
2023-02-15T00:34:15.336Z,0.48
2023-02-15T00:36:42.472Z,0.47
2023-02-15T00:39:09.135Z,0.45
2023-02-15T00:41:35.537Z,0.47
2023-02-15T00:44:02.097Z,0.45
2023-02-15T00:46:28.750Z,0.46
2023-02-15T00:48:55.136Z,0.44
2023-02-15T00:51:21.876Z,0.45
2023-02-15T00:53:49.117Z,0.42
2023-02-15T00:56:15.693Z,0.37
2023-02-15T00:58:42.403Z,0.28
2023-02-15T01:01:14.505Z,0.21
2023-02-15T01:03:44.812Z,0.12
2023-02-15T01:06:11.972Z,0.09
2023-02-15T01:08:39.042Z,0.10
2023-02-15T01:11:11.507Z,0.07
2023-02-15T01:13:38.344Z,0.01
2023-02-15T01:16:05.657Z,-0.05
2023-02-15T01:18:33.341Z,-0.07
2023-02-15T01:21:00.230Z,-0.06
2023-02-15T01:23:26.709Z,-0.05
2023-02-15T01:25:53.084Z,-0.06
2023-02-15T01:28:19.445Z,-0.07
2023-02-15T01:30:45.855Z,-0.08
2023-02-15T01:33:18.520Z,-0.06
2023-02-15T01:35:48.393Z,-0.03
2023-02-15T01:38:15.410Z,-0.02
2023-02-15T01:40:42.428Z,-0.04
2023-02-15T01:43:13.010Z,-0.05
2023-02-15T01:45:40.240Z,-0.01
2023-02-15T01:48:16.662Z,0.01
2023-02-15T01:50:51.017Z,-0.01
2023-02-15T01:54:07.114Z,-0.02
2023-02-15T01:56:36.967Z,-0.05
2023-02-15T01:59:08.915Z,-0.06
2023-02-15T02:01:35.491Z,-0.07
2023-02-15T02:04:16.985Z,-0.18
2023-02-15T02:06:47.229Z,-0.17
2023-02-15T02:09:13.832Z,-0.23
2023-02-15T02:11:41.598Z,-0.35
2023-02-15T02:14:08.815Z,-0.40
2023-02-15T02:16:41.428Z,-0.41
2023-02-15T02:19:45.473Z,-0.40
2023-02-15T02:22:20.940Z,-0.40
2023-02-15T02:25:27.673Z,-0.37
2023-02-15T02:28:32.582Z,-0.38
2023-02-15T02:31:36.478Z,-0.35
2023-02-15T02:34:26.630Z,-0.31
2023-02-15T02:37:17.733Z,-0.29
2023-02-15T02:40:00.240Z,-0.28
2023-02-15T02:42:40.125Z,-0.31
2023-02-15T02:45:16.018Z,-0.41
2023-02-15T02:47:57.427Z,-0.52
2023-02-15T02:50:27.636Z,-0.61
2023-02-15T02:52:56.825Z,-0.67
2023-02-15T02:55:35.778Z,-0.67
2023-02-15T02:58:21.940Z,-0.68
2023-02-15T03:00:58.549Z,-0.70
2023-02-15T03:03:37.684Z,-0.77
2023-02-15T03:06:18.832Z,-0.80
2023-02-15T03:08:51.211Z,-0.81
2023-02-15T03:11:18.201Z,-0.84
2023-02-15T03:13:48.368Z,-0.84
2023-02-15T03:16:29.088Z,-0.83
2023-02-15T03:19:13.475Z,-0.82
2023-02-15T03:21:42.540Z,-0.81
2023-02-15T03:24:16.100Z,-0.80
2023-02-15T03:26:46.431Z,-0.81
2023-02-15T03:29:14.306Z,-0.83
2023-02-15T03:31:45.235Z,-0.86
2023-02-15T03:34:16.152Z,-0.88
2023-02-15T03:36:51.181Z,-0.92
2023-02-15T03:39:30.017Z,-0.96
2023-02-15T03:42:05.094Z,-1.00
2023-02-15T03:44:34.985Z,-0.99
2023-02-15T03:47:04.872Z,-1.00
2023-02-15T03:49:44.334Z,-0.97
2023-02-15T03:52:12.501Z,-0.94
2023-02-15T03:54:49.249Z,-0.93
2023-02-15T03:57:41.029Z,-0.90
2023-02-15T04:00:31.429Z,-0.96
2023-02-15T04:03:15.885Z,-0.98
2023-02-15T04:05:46.102Z,-1.00
2023-02-15T04:08:13.130Z,-1.05
2023-02-15T04:10:56.964Z,-1.08
2023-02-15T04:13:30.430Z,-1.09
2023-02-15T04:16:07.322Z,-1.08
2023-02-15T04:19:11.115Z,-1.05
2023-02-15T04:21:56.011Z,-1.05
2023-02-15T04:24:40.982Z,-1.05
2023-02-15T04:27:07.410Z,-1.12
2023-02-15T04:29:33.770Z,-1.19
2023-02-15T04:32:02.151Z,-1.24
2023-02-15T04:34:28.650Z,-1.25
2023-02-15T04:36:55.019Z,-1.24
2023-02-15T04:39:21.375Z,-1.24
2023-02-15T04:41:48.701Z,-1.21
2023-02-15T04:44:15.242Z,-1.19
2023-02-15T04:46:41.600Z,-1.23
2023-02-15T04:49:09.170Z,-1.22
2023-02-15T04:51:35.586Z,-1.21
2023-02-15T04:54:01.963Z,-1.23
2023-02-15T04:56:28.320Z,-1.24
2023-02-15T04:58:54.719Z,-1.22
2023-02-15T05:01:21.167Z,-1.23
2023-02-15T05:03:47.599Z,-1.24
2023-02-15T05:06:13.987Z,-1.25
2023-02-15T05:08:40.366Z,-1.26
2023-02-15T05:11:06.780Z,-1.29
2023-02-15T05:13:33.139Z,-1.30
2023-02-15T05:15:59.651Z,-1.33
2023-02-15T05:18:26.080Z,-1.39
2023-02-15T05:20:52.500Z,-1.43
2023-02-15T05:23:18.897Z,-1.42
2023-02-15T05:26:10.722Z,-1.45
2023-02-15T05:28:38.369Z,-1.47
2023-02-15T05:31:08.791Z,-1.44
2023-02-15T05:33:35.702Z,-1.43
2023-02-15T05:36:03.728Z,-1.47
2023-02-15T05:38:31.135Z,-1.51
2023-02-15T05:40:57.851Z,-1.50
2023-02-15T05:43:24.813Z,-1.52
2023-02-15T05:45:53.949Z,-1.51
2023-02-15T05:48:22.326Z,-1.51
2023-02-15T05:51:02.037Z,-1.49
2023-02-15T05:53:30.622Z,-1.51
2023-02-15T05:56:00.617Z,-1.52
2023-02-15T05:58:28.322Z,-1.51
2023-02-15T06:00:56.108Z,-1.51
2023-02-15T06:03:23.763Z,-1.50
2023-02-15T06:05:50.587Z,-1.51
2023-02-15T06:08:17.000Z,-1.48
2023-02-15T06:10:43.378Z,-1.49
2023-02-15T06:13:09.791Z,-1.48
2023-02-15T06:15:36.280Z,-1.48
2023-02-15T06:18:03.026Z,-1.49
2023-02-15T06:20:29.531Z,-1.50
2023-02-15T06:22:55.856Z,-1.49
2023-02-15T06:25:22.309Z,-1.46
2023-02-15T06:27:48.730Z,-1.46
2023-02-15T06:30:15.368Z,-1.41
2023-02-15T06:32:41.954Z,-1.44
2023-02-15T06:35:08.512Z,-1.46
2023-02-15T06:37:34.898Z,-1.46
2023-02-15T06:40:03.600Z,-1.49
2023-02-15T06:42:30.991Z,-1.52
2023-02-15T06:44:57.376Z,-1.54
2023-02-15T06:47:23.699Z,-1.57
2023-02-15T06:49:50.028Z,-1.55
2023-02-15T06:52:16.390Z,-1.55
2023-02-15T06:54:42.706Z,-1.55
2023-02-15T06:57:10.380Z,-1.55
2023-02-15T06:59:36.896Z,-1.55
2023-02-15T07:02:03.306Z,-1.52
2023-02-15T07:04:30.782Z,-1.48
2023-02-15T07:06:57.144Z,-1.42
2023-02-15T07:09:23.879Z,-1.40
2023-02-15T07:12:08.803Z,-1.37
2023-02-15T07:14:35.266Z,-1.40
2023-02-15T07:17:01.674Z,-1.38
2023-02-15T07:19:28.178Z,-1.36
2023-02-15T07:21:54.580Z,-1.33
2023-02-15T07:24:20.971Z,-1.30
2023-02-15T07:26:47.403Z,-1.28
2023-02-15T07:29:13.816Z,-1.25
2023-02-15T07:31:40.202Z,-1.19
2023-02-15T07:34:08.070Z,-1.11
2023-02-15T07:36:34.411Z,-1.01
2023-02-15T07:39:00.818Z,-0.88
2023-02-15T07:41:27.177Z,-0.74
2023-02-15T07:43:53.593Z,-0.67
2023-02-15T07:46:21.736Z,-0.59
2023-02-15T07:48:48.693Z,-0.58
2023-02-15T07:51:16.821Z,-0.55
2023-02-15T07:53:43.461Z,-0.51
2023-02-15T07:56:14.499Z,-0.46
2023-02-15T07:58:53.349Z,-0.37
2023-02-15T08:01:25.799Z,-0.18
2023-02-15T08:03:53.160Z,-0.02
2023-02-15T08:06:20.087Z,0.04
2023-02-15T08:08:46.482Z,0.12
2023-02-15T08:11:41.980Z,0.25
2023-02-15T08:14:12.338Z,0.38
2023-02-15T08:16:40.073Z,0.48
2023-02-15T08:19:08.664Z,0.57
2023-02-15T08:21:37.745Z,0.67
2023-02-15T08:24:05.571Z,0.79
2023-02-15T08:26:32.870Z,0.89
2023-02-15T08:29:00.107Z,1.07
2023-02-15T08:31:27.364Z,1.26
2023-02-15T08:33:55.822Z,1.46
2023-02-15T08:36:25.459Z,1.61
2023-02-15T08:38:52.038Z,1.76
2023-02-15T08:41:19.791Z,1.90
2023-02-15T08:43:48.575Z,2.00
2023-02-15T08:46:17.318Z,2.10
2023-02-15T08:48:44.621Z,2.22
2023-02-15T08:51:14.630Z,2.36
2023-02-15T08:53:42.975Z,2.51
2023-02-15T08:56:10.833Z,2.65
2023-02-15T08:58:38.073Z,2.80
2023-02-15T09:01:20.815Z,2.91
2023-02-15T09:03:50.107Z,2.95
2023-02-15T09:06:17.918Z,3.05
2023-02-15T09:08:44.460Z,3.21
2023-02-15T09:11:23.151Z,3.32
2023-02-15T09:13:55.749Z,3.38
2023-02-15T09:16:24.190Z,3.45
2023-02-15T09:18:51.719Z,3.56
2023-02-15T09:21:22.493Z,3.75
2023-02-15T09:23:50.902Z,3.93
2023-02-15T09:26:20.561Z,4.44
2023-02-15T09:28:49.358Z,4.99
2023-02-15T09:31:18.350Z,5.42
2023-02-15T09:33:46.561Z,6.06
2023-02-15T09:36:24.737Z,6.37
2023-02-15T09:39:04.974Z,6.69
2023-02-15T09:41:51.804Z,6.76
2023-02-15T09:44:28.704Z,6.93
2023-02-15T09:47:25.369Z,6.81
2023-02-15T09:50:05.036Z,6.79
2023-02-15T09:53:02.096Z,6.73
2023-02-15T09:56:07.150Z,6.46
2023-02-15T09:58:43.497Z,6.30
2023-02-15T10:01:46.492Z,6.37
2023-02-15T10:04:32.038Z,6.44
2023-02-15T10:07:04.005Z,6.48
2023-02-15T10:09:36.026Z,6.48
2023-02-15T10:12:35.962Z,6.64
2023-02-15T10:15:25.209Z,6.80
2023-02-15T10:18:06.863Z,6.90
2023-02-15T10:20:40.135Z,7.00
2023-02-15T10:23:34.245Z,7.05
2023-02-15T10:26:19.989Z,7.15
2023-02-15T10:28:52.306Z,7.46
2023-02-15T10:31:49.564Z,7.69
2023-02-15T10:34:20.318Z,7.76
2023-02-15T10:37:17.559Z,7.79
2023-02-15T10:40:15.485Z,7.88
2023-02-15T10:42:57.203Z,8.11
2023-02-15T10:45:45.366Z,8.22
2023-02-15T10:48:23.866Z,8.31
2023-02-15T10:50:53.701Z,8.43
2023-02-15T10:53:32.234Z,8.64
2023-02-15T10:56:29.351Z,9.00
2023-02-15T10:59:04.605Z,9.04
2023-02-15T11:01:56.531Z,9.07
2023-02-15T11:04:46.490Z,9.01
2023-02-15T11:07:18.906Z,9.13
2023-02-15T11:09:50.472Z,9.29
2023-02-15T11:12:21.952Z,9.61
2023-02-15T11:14:59.965Z,9.77
2023-02-15T11:17:36.593Z,9.72
2023-02-15T11:20:17.538Z,9.76
2023-02-15T11:22:49.153Z,9.84
2023-02-15T11:25:20.183Z,9.79
2023-02-15T11:27:49.482Z,9.78
2023-02-15T11:30:21.898Z,9.79
2023-02-15T11:32:52.167Z,9.69
2023-02-15T11:35:31.606Z,9.90
2023-02-15T11:38:15.413Z,10.04
2023-02-15T11:40:52.811Z,10.28
2023-02-15T11:43:33.563Z,10.57
2023-02-15T11:46:00.125Z,11.09
2023-02-15T11:48:26.843Z,11.34
2023-02-15T11:50:53.302Z,11.50
2023-02-15T11:53:25.634Z,11.77
2023-02-15T11:55:52.332Z,11.97
2023-02-15T11:58:45.676Z,12.33
2023-02-15T12:01:25.305Z,12.50
2023-02-15T12:03:56.319Z,12.35
2023-02-15T12:06:45.058Z,12.51
2023-02-15T12:09:31.677Z,12.53
2023-02-15T12:12:25.398Z,12.17
2023-02-15T12:14:57.054Z,12.39
2023-02-15T12:17:35.582Z,12.33
2023-02-15T12:20:23.921Z,12.36
2023-02-15T12:23:02.987Z,12.41
2023-02-15T12:25:54.442Z,12.33
2023-02-15T12:28:34.767Z,12.31
2023-02-15T12:31:04.795Z,12.11
2023-02-15T12:33:44.284Z,12.63
2023-02-15T12:36:22.109Z,12.93
2023-02-15T12:39:14.491Z,13.07
2023-02-15T12:41:47.484Z,13.06
2023-02-15T12:44:25.118Z,13.40
2023-02-15T12:47:04.995Z,13.73
2023-02-15T12:49:36.319Z,14.24
2023-02-15T12:52:09.538Z,14.32
2023-02-15T12:54:42.255Z,14.50
2023-02-15T12:57:32.614Z,14.95
2023-02-15T13:00:25.417Z,14.77
2023-02-15T13:02:54.561Z,14.16
2023-02-15T13:05:25.141Z,13.67
2023-02-15T13:07:57.061Z,13.34
2023-02-15T13:10:29.990Z,13.17
2023-02-15T13:12:58.731Z,13.27
2023-02-15T13:15:37.941Z,13.14
2023-02-15T13:18:06.691Z,13.28
2023-02-15T13:20:37.472Z,13.41
2023-02-15T13:23:11.851Z,13.30
2023-02-15T13:25:48.230Z,13.21
2023-02-15T13:28:16.190Z,13.12
2023-02-15T13:30:46.254Z,13.25
2023-02-15T13:33:33.313Z,13.10
2023-02-15T13:36:13.652Z,12.99
2023-02-15T13:38:50.305Z,12.97
2023-02-15T13:41:22.507Z,13.02
2023-02-15T13:44:00.270Z,12.92
2023-02-15T13:46:50.201Z,12.81
2023-02-15T13:49:33.327Z,12.70
2023-02-15T13:52:06.589Z,12.63
2023-02-15T13:54:51.822Z,12.51
2023-02-15T13:57:44.569Z,12.57
2023-02-15T14:00:43.358Z,12.67
2023-02-15T14:03:37.456Z,12.81
2023-02-15T14:06:41.500Z,12.65
2023-02-15T14:09:44.807Z,12.55
2023-02-15T14:12:49.632Z,12.46
2023-02-15T14:15:30.555Z,12.30
2023-02-15T14:18:05.008Z,12.18
2023-02-15T14:20:42.495Z,12.22
2023-02-15T14:23:30.556Z,12.16
2023-02-15T14:26:03.669Z,12.20
2023-02-15T14:28:37.865Z,12.25
2023-02-15T14:31:08.191Z,12.26
2023-02-15T14:33:41.292Z,12.19
2023-02-15T14:36:12.195Z,12.11
2023-02-15T14:39:38.127Z,12.01
2023-02-15T14:42:28.860Z,11.99
2023-02-15T14:45:17.906Z,11.93
2023-02-15T14:48:06.143Z,11.79
2023-02-15T14:50:34.700Z,11.80
2023-02-15T14:53:19.677Z,11.80
2023-02-15T14:55:46.075Z,11.80
2023-02-15T14:58:14.367Z,11.83
2023-02-15T15:00:42.620Z,11.91
2023-02-15T15:03:24.122Z,11.79
2023-02-15T15:05:58.071Z,11.72
2023-02-15T15:08:39.675Z,11.68
2023-02-15T15:11:42.866Z,11.74
2023-02-15T15:14:11.165Z,11.71
2023-02-15T15:16:37.938Z,11.65
2023-02-15T15:19:10.014Z,11.49
2023-02-15T15:21:51.367Z,11.48
2023-02-15T15:24:39.709Z,11.42
2023-02-15T15:27:37.238Z,11.31
2023-02-15T15:30:23.610Z,11.31
2023-02-15T15:32:56.150Z,11.25
2023-02-15T15:35:35.926Z,11.29
2023-02-15T15:38:30.108Z,11.32
2023-02-15T15:41:34.384Z,11.33
2023-02-15T15:44:43.500Z,11.27
2023-02-15T15:47:28.833Z,11.30
2023-02-15T15:49:59.473Z,11.12
2023-02-15T15:52:27.844Z,11.09
2023-02-15T15:54:58.972Z,11.12
2023-02-15T15:57:35.838Z,11.03
2023-02-15T16:00:04.473Z,10.96
2023-02-15T16:02:31.009Z,10.98
2023-02-15T16:05:08.311Z,10.99
2023-02-15T16:07:34.784Z,10.92
2023-02-15T16:10:07.136Z,10.93
2023-02-15T16:12:35.896Z,10.90
2023-02-15T16:15:15.477Z,10.73
2023-02-15T16:17:48.500Z,10.63
2023-02-15T16:20:19.772Z,10.57
2023-02-15T16:22:56.028Z,10.45
2023-02-15T16:25:36.408Z,10.39
2023-02-15T16:28:12.972Z,10.33
2023-02-15T16:30:40.722Z,10.25
2023-02-15T16:33:12.814Z,10.18
2023-02-15T16:35:41.895Z,10.11
2023-02-15T16:38:12.412Z,10.04
2023-02-15T16:40:53.677Z,9.98
2023-02-15T16:43:25.858Z,9.92
2023-02-15T16:45:54.539Z,9.88
2023-02-15T16:48:24.872Z,9.77
2023-02-15T16:50:56.781Z,9.71
2023-02-15T16:53:28.628Z,9.64
2023-02-15T16:55:59.345Z,9.56
2023-02-15T16:58:46.496Z,9.49
2023-02-15T17:01:15.991Z,9.47
2023-02-15T17:03:43.207Z,9.38
2023-02-15T17:06:26.771Z,9.28
2023-02-15T17:09:03.321Z,9.17
2023-02-15T17:11:46.397Z,9.12
2023-02-15T17:14:21.540Z,9.05
2023-02-15T17:16:54.673Z,8.98
2023-02-15T17:19:30.935Z,8.94
2023-02-15T17:22:00.689Z,8.87
2023-02-15T17:24:33.064Z,8.82
2023-02-15T17:27:03.174Z,8.77
2023-02-15T17:29:32.840Z,8.72
2023-02-15T17:31:59.944Z,8.66
2023-02-15T17:34:45.141Z,8.59
2023-02-15T17:37:14.618Z,8.53
2023-02-15T17:39:42.108Z,8.48
2023-02-15T17:42:08.505Z,8.46
2023-02-15T17:44:34.914Z,8.41
2023-02-15T17:47:01.384Z,8.38
2023-02-15T17:49:29.274Z,8.34
2023-02-15T17:51:55.686Z,8.30
2023-02-15T17:54:40.494Z,8.25
2023-02-15T17:57:13.721Z,8.21
2023-02-15T17:59:59.016Z,8.18
2023-02-15T18:02:44.031Z,8.16
2023-02-15T18:05:33.125Z,8.15
2023-02-15T18:08:18.306Z,8.10
2023-02-15T18:11:03.409Z,8.04
2023-02-15T18:13:30.007Z,7.98
2023-02-15T18:15:56.630Z,7.95
2023-02-15T18:18:24.322Z,7.93
2023-02-15T18:20:50.854Z,7.90
2023-02-15T18:23:17.288Z,7.83
2023-02-15T18:25:43.821Z,7.79
2023-02-15T18:28:10.434Z,7.73
2023-02-15T18:30:41.139Z,7.64
2023-02-15T18:33:40.132Z,7.58
2023-02-15T18:36:11.605Z,7.52
2023-02-15T18:38:37.992Z,7.47
2023-02-15T18:41:05.821Z,7.39
2023-02-15T18:43:32.245Z,7.31
2023-02-15T18:45:58.777Z,7.26
2023-02-15T18:48:25.203Z,7.18
2023-02-15T18:50:51.812Z,7.11
2023-02-15T18:53:21.203Z,7.04
2023-02-15T18:55:49.555Z,7.01
2023-02-15T18:58:20.570Z,6.94
2023-02-15T19:00:48.819Z,6.87
2023-02-15T19:03:17.414Z,6.80
2023-02-15T19:05:46.143Z,6.81
2023-02-15T19:08:24.631Z,6.80
2023-02-15T19:10:51.509Z,6.80
2023-02-15T19:13:17.896Z,6.78
2023-02-15T19:15:44.564Z,6.75
2023-02-15T19:18:11.179Z,6.77
2023-02-15T19:20:44.131Z,6.75
2023-02-15T19:23:23.730Z,6.74
2023-02-15T19:25:52.331Z,6.72
2023-02-15T19:28:26.158Z,6.68
2023-02-15T19:30:52.503Z,6.68
2023-02-15T19:33:21.041Z,6.69
2023-02-15T19:35:52.325Z,6.67
2023-02-15T19:38:23.691Z,6.65
2023-02-15T19:40:50.074Z,6.59
2023-02-15T19:43:19.336Z,6.56
2023-02-15T19:45:46.320Z,6.53
2023-02-15T19:48:14.350Z,6.52
2023-02-15T19:50:43.397Z,6.50
2023-02-15T19:53:23.318Z,6.44
2023-02-15T19:55:50.741Z,6.41
2023-02-15T19:58:20.360Z,6.41
2023-02-15T20:00:51.271Z,6.35
2023-02-15T20:03:17.714Z,6.32
2023-02-15T20:05:44.650Z,6.28
2023-02-15T20:08:18.369Z,6.25
2023-02-15T20:10:45.866Z,6.19
2023-02-15T20:13:16.827Z,6.15
2023-02-15T20:15:44.289Z,6.09
2023-02-15T20:18:11.093Z,6.04
2023-02-15T20:20:43.750Z,5.97
2023-02-15T20:23:31.055Z,5.94
2023-02-15T20:25:59.895Z,5.87
2023-02-15T20:28:31.687Z,5.91
2023-02-15T20:30:59.073Z,5.92
2023-02-15T20:33:25.616Z,5.86
2023-02-15T20:35:52.362Z,5.85
2023-02-15T20:38:25.467Z,5.83
2023-02-15T20:41:10.874Z,5.86
2023-02-15T20:43:37.438Z,5.87
2023-02-15T20:46:04.411Z,5.84
2023-02-15T20:48:30.926Z,5.80
2023-02-15T20:51:00.321Z,5.83
2023-02-15T20:53:28.591Z,5.85
2023-02-15T20:55:55.782Z,5.87
2023-02-15T20:58:30.402Z,5.85
2023-02-15T21:00:59.042Z,5.83
2023-02-15T21:03:30.579Z,5.81
2023-02-15T21:05:58.310Z,5.82
2023-02-15T21:08:25.448Z,5.85
2023-02-15T21:10:52.860Z,5.88
2023-02-15T21:13:26.978Z,5.90
2023-02-15T21:15:55.668Z,5.91
2023-02-15T21:18:24.423Z,5.88
2023-02-15T21:20:54.913Z,5.86
2023-02-15T21:23:24.493Z,5.87
2023-02-15T21:25:50.861Z,5.90
2023-02-15T21:28:20.518Z,5.88
2023-02-15T21:30:48.810Z,5.87
2023-02-15T21:33:16.047Z,5.83
2023-02-15T21:35:44.566Z,5.77
2023-02-15T21:38:15.570Z,5.78
2023-02-15T21:40:42.453Z,5.81
2023-02-15T21:43:42.675Z,5.76
2023-02-15T21:46:32.583Z,5.75
2023-02-15T21:48:59.004Z,5.74
2023-02-15T21:51:43.713Z,5.78
2023-02-15T21:54:12.638Z,5.80
2023-02-15T21:56:41.221Z,5.77
2023-02-15T21:59:12.211Z,5.76
2023-02-15T22:01:41.439Z,5.75
2023-02-15T22:04:14.517Z,5.77
2023-02-15T22:06:41.607Z,5.75
2023-02-15T22:09:23.149Z,5.71
2023-02-15T22:11:50.965Z,5.68
2023-02-15T22:14:43.369Z,5.69
2023-02-15T22:17:18.978Z,5.71
2023-02-15T22:19:47.282Z,5.73
2023-02-15T22:22:14.112Z,5.72
2023-02-15T22:24:40.827Z,5.72
2023-02-15T22:27:10.602Z,5.67
2023-02-15T22:29:37.303Z,5.71
2023-02-15T22:32:05.988Z,5.71
2023-02-15T22:34:32.629Z,5.70
2023-02-15T22:36:59.531Z,5.67
2023-02-15T22:39:26.250Z,5.63
2023-02-15T22:41:53.481Z,5.62
2023-02-15T22:44:27.622Z,5.61
2023-02-15T22:46:54.356Z,5.62
2023-02-15T22:49:21.125Z,5.61
2023-02-15T22:51:49.217Z,5.56
2023-02-15T22:54:17.027Z,5.55
2023-02-15T22:56:47.364Z,5.52
2023-02-15T22:59:21.320Z,5.50
2023-02-15T23:01:48.070Z,5.49
2023-02-15T23:04:22.804Z,5.45
2023-02-15T23:06:49.938Z,5.42
2023-02-15T23:09:16.377Z,5.43
2023-02-15T23:11:43.209Z,5.42
2023-02-15T23:14:33.238Z,5.39
2023-02-15T23:16:59.724Z,5.36
2023-02-15T23:19:26.445Z,5.34
2023-02-15T23:21:53.510Z,5.36
2023-02-15T23:24:23.224Z,5.31
2023-02-15T23:26:50.489Z,5.27
2023-02-15T23:29:22.503Z,5.22
2023-02-15T23:31:51.447Z,5.21
2023-02-15T23:34:26.293Z,5.26
2023-02-15T23:36:52.979Z,5.21
2023-02-15T23:39:41.765Z,5.19
2023-02-15T23:42:13.055Z,5.17
2023-02-15T23:44:40.775Z,5.14
2023-02-15T23:47:43.547Z,5.14
2023-02-15T23:50:21.776Z,5.09
2023-02-15T23:52:50.170Z,5.12
2023-02-15T23:55:17.244Z,5.09
2023-02-15T23:57:44.619Z,5.08
